Forsan, Texas
Current Conditions -  °F | °C
As of 7:15 AM on Tuesday 21 Oct 2014 (Local Time) from KBPG Reporting Station
Clear Clear  
Wind Chill: 59°   Ceiling: Unl
Heat Index: 59°   Visibility: 10mi
Dew Point: 54°   Wind: 5mph
Humidity: 84%   Direction: 150°SSE
Pressure: 30.12"   Gusts: NA
Location:  32.11°N, 101.37°W
Report Text: KBPG 211215Z AUTO 15004KT 10SM CLR 15/12 A3012 RMK AO2 T01480122
Loading
Personal Weather Stations






























Interactive Weather Map
Tropical Storm Tracking
New forecast layout! Learn more

10-Day Weather Forecast

Advertisements
Track Severe Weather on mobile